N1898L KJAX-KEYW
Flight info
| Callsign | N1898L |
|---|---|
| Flight time | 1h 16m |
| Altitude | 43000 |
| Route | JETIN2 JAYJA SABEE KRAKN1 |
| Aircraft | E55P/M-SBDFGHJ2RWY/LB2 |
Departure
| Time | 2026-05-03 20:22 |
|---|---|
| Airport | Jacksonville International Airport (KJAX) |
Arrival
| Time | 2026-05-03 21:38 |
|---|---|
| Airport | Key West International Airport (KEYW) |
| Time | Latitude | Longitude | Altitude | Speed | Heading |
|---|---|---|---|---|---|
| 2026-05-03 20:15 | 30.49753 | -81.67809 | 21 ft | 1 kts | 4° |
| 2026-05-03 20:15 | 30.49761 | -81.67808 | 21 ft | 0 kts | 4° |
| 2026-05-03 20:15 | 30.49767 | -81.67808 | 21 ft | 0 kts | 4° |
| 2026-05-03 20:16 | 30.49772 | -81.67807 | 21 ft | 0 kts | 5° |
| 2026-05-03 20:16 | 30.49781 | -81.67806 | 21 ft | 3 kts | 1° |
| 2026-05-03 20:16 | 30.49828 | -81.67838 | 21 ft | 13 kts | 295° |
| 2026-05-03 20:16 | 30.49895 | -81.67922 | 21 ft | 18 kts | 347° |
| 2026-05-03 20:17 | 30.50010 | -81.67966 | 21 ft | 16 kts | 342° |
| 2026-05-03 20:17 | 30.50038 | -81.68063 | 21 ft | 15 kts | 250° |
| 2026-05-03 20:17 | 30.50001 | -81.68185 | 21 ft | 16 kts | 250° |
| 2026-05-03 20:17 | 30.49963 | -81.68312 | 21 ft | 16 kts | 251° |
| 2026-05-03 20:18 | 30.49923 | -81.68439 | 21 ft | 18 kts | 251° |
| 2026-05-03 20:18 | 30.49875 | -81.68591 | 21 ft | 20 kts | 250° |
| 2026-05-03 20:18 | 30.49827 | -81.68745 | 21 ft | 20 kts | 252° |
| 2026-05-03 20:18 | 30.49782 | -81.68897 | 21 ft | 19 kts | 249° |
| 2026-05-03 20:19 | 30.49738 | -81.69048 | 21 ft | 19 kts | 251° |
| 2026-05-03 20:19 | 30.49694 | -81.69199 | 21 ft | 19 kts | 251° |
| 2026-05-03 20:19 | 30.49646 | -81.69348 | 21 ft | 19 kts | 250° |
| 2026-05-03 20:19 | 30.49600 | -81.69497 | 21 ft | 19 kts | 249° |
| 2026-05-03 20:20 | 30.49555 | -81.69643 | 21 ft | 19 kts | 249° |
| 2026-05-03 20:20 | 30.49510 | -81.69792 | 21 ft | 19 kts | 250° |
| 2026-05-03 20:20 | 30.49513 | -81.69939 | 18 ft | 19 kts | 332° |
| 2026-05-03 20:20 | 30.49619 | -81.69975 | 18 ft | 12 kts | 19° |
| 2026-05-03 20:21 | 30.49653 | -81.69896 | 19 ft | 11 kts | 71° |
| 2026-05-03 20:21 | 30.49677 | -81.69815 | 21 ft | 23 kts | 72° |
| 2026-05-03 20:21 | 30.49822 | -81.69327 | 21 ft | 101 kts | 72° |
| 2026-05-03 20:21 | 30.50123 | -81.68353 | 82 ft | 148 kts | 69° |
| 2026-05-03 20:22 | 30.50521 | -81.67067 | 249 ft | 195 kts | 71° |
| 2026-05-03 20:22 | 30.51039 | -81.65373 | 378 ft | 244 kts | 71° |
| 2026-05-03 20:22 | 30.51606 | -81.63511 | 1325 ft | 250 kts | 70° |
| 2026-05-03 20:22 | 30.52149 | -81.61669 | 2592 ft | 245 kts | 70° |
| 2026-05-03 20:23 | 30.52736 | -81.59695 | 2925 ft | 279 kts | 70° |
| 2026-05-03 20:23 | 30.53384 | -81.57515 | 2961 ft | 282 kts | 70° |
| 2026-05-03 20:23 | 30.54051 | -81.55494 | 3389 ft | 261 kts | 60° |
| 2026-05-03 20:23 | 30.55308 | -81.54090 | 3583 ft | 251 kts | 25° |
| 2026-05-03 20:24 | 30.57031 | -81.53760 | 3568 ft | 254 kts | 353° |
| 2026-05-03 20:24 | 30.58630 | -81.54630 | 3558 ft | 259 kts | 318° |
| 2026-05-03 20:24 | 30.59500 | -81.56441 | 3639 ft | 261 kts | 282° |
| 2026-05-03 20:24 | 30.59324 | -81.58484 | 3810 ft | 260 kts | 251° |
| 2026-05-03 20:25 | 30.58635 | -81.60409 | 3902 ft | 260 kts | 248° |
| 2026-05-03 20:25 | 30.57880 | -81.62337 | 3935 ft | 262 kts | 246° |
| 2026-05-03 20:25 | 30.57109 | -81.64246 | 4015 ft | 261 kts | 246° |
| 2026-05-03 20:25 | 30.56324 | -81.66162 | 4124 ft | 260 kts | 246° |
| 2026-05-03 20:26 | 30.55531 | -81.68105 | 4369 ft | 278 kts | 245° |
| 2026-05-03 20:26 | 30.54721 | -81.70087 | 5488 ft | 270 kts | 246° |
| 2026-05-03 20:26 | 30.53946 | -81.71973 | 6628 ft | 261 kts | 246° |
| 2026-05-03 20:26 | 30.53174 | -81.73863 | 7544 ft | 261 kts | 246° |
| 2026-05-03 20:27 | 30.52402 | -81.75748 | 8398 ft | 263 kts | 247° |
| 2026-05-03 20:27 | 30.51625 | -81.77644 | 9356 ft | 261 kts | 247° |
| 2026-05-03 20:27 | 30.50861 | -81.79511 | 10249 ft | 260 kts | 248° |
| 2026-05-03 20:27 | 30.50095 | -81.81389 | 11134 ft | 260 kts | 247° |
| 2026-05-03 20:28 | 30.49326 | -81.83261 | 11978 ft | 260 kts | 247° |
| 2026-05-03 20:28 | 30.48553 | -81.85136 | 12808 ft | 261 kts | 247° |
| 2026-05-03 20:28 | 30.47778 | -81.87033 | 13626 ft | 262 kts | 246° |
| 2026-05-03 20:28 | 30.46998 | -81.88925 | 14370 ft | 265 kts | 246° |
| 2026-05-03 20:29 | 30.46212 | -81.90845 | 15152 ft | 266 kts | 246° |
| 2026-05-03 20:29 | 30.45416 | -81.92774 | 15896 ft | 268 kts | 247° |
| 2026-05-03 20:29 | 30.44610 | -81.94733 | 16597 ft | 271 kts | 246° |
| 2026-05-03 20:29 | 30.43801 | -81.96696 | 17271 ft | 274 kts | 246° |
| 2026-05-03 20:30 | 30.42984 | -81.98676 | 18032 ft | 274 kts | 246° |
| 2026-05-03 20:30 | 30.42167 | -82.00665 | 18727 ft | 276 kts | 246° |
| 2026-05-03 20:30 | 30.41432 | -82.02703 | 19403 ft | 277 kts | 254° |
| 2026-05-03 20:30 | 30.40955 | -82.04871 | 20023 ft | 280 kts | 255° |
| 2026-05-03 20:31 | 30.40441 | -82.07035 | 20704 ft | 280 kts | 256° |
| 2026-05-03 20:31 | 30.39842 | -82.09159 | 21380 ft | 281 kts | 248° |
| 2026-05-03 20:31 | 30.38876 | -82.11139 | 21968 ft | 286 kts | 238° |
| 2026-05-03 20:31 | 30.37604 | -82.12904 | 22601 ft | 290 kts | 229° |
| 2026-05-03 20:32 | 30.36006 | -82.14391 | 23188 ft | 297 kts | 219° |
| 2026-05-03 20:32 | 30.34163 | -82.15509 | 23786 ft | 304 kts | 212° |
| 2026-05-03 20:32 | 30.32338 | -82.16655 | 24402 ft | 298 kts | 220° |
| 2026-05-03 20:32 | 30.30572 | -82.17950 | 24941 ft | 300 kts | 219° |
| 2026-05-03 20:33 | 30.28837 | -82.19258 | 25503 ft | 300 kts | 220° |
| 2026-05-03 20:33 | 30.27099 | -82.20570 | 26046 ft | 300 kts | 220° |
| 2026-05-03 20:33 | 30.25335 | -82.21896 | 26525 ft | 302 kts | 220° |
| 2026-05-03 20:33 | 30.23587 | -82.23224 | 26987 ft | 305 kts | 220° |
| 2026-05-03 20:34 | 30.21814 | -82.24554 | 27564 ft | 302 kts | 220° |
| 2026-05-03 20:34 | 30.20080 | -82.25864 | 28287 ft | 296 kts | 220° |
| 2026-05-03 20:34 | 30.18363 | -82.27155 | 28943 ft | 291 kts | 220° |
| 2026-05-03 20:34 | 30.16682 | -82.28427 | 29496 ft | 289 kts | 220° |
| 2026-05-03 20:35 | 30.15004 | -82.29682 | 30019 ft | 288 kts | 221° |
| 2026-05-03 20:35 | 30.13343 | -82.30939 | 30584 ft | 284 kts | 222° |
| 2026-05-03 20:35 | 30.11639 | -82.32100 | 31045 ft | 290 kts | 215° |
| 2026-05-03 20:35 | 30.09729 | -82.32904 | 31527 ft | 298 kts | 206° |
| 2026-05-03 20:36 | 30.07651 | -82.33294 | 32073 ft | 307 kts | 197° |
| 2026-05-03 20:36 | 30.05474 | -82.33291 | 32545 ft | 312 kts | 193° |
| 2026-05-03 20:36 | 30.03347 | -82.33317 | 33007 ft | 306 kts | 197° |
| 2026-05-03 20:36 | 30.01222 | -82.33399 | 33440 ft | 304 kts | 198° |
| 2026-05-03 20:37 | 29.99111 | -82.33514 | 33845 ft | 303 kts | 198° |
| 2026-05-03 20:37 | 29.97003 | -82.33629 | 34314 ft | 299 kts | 198° |
| 2026-05-03 20:37 | 29.94928 | -82.33746 | 34701 ft | 298 kts | 199° |
| 2026-05-03 20:37 | 29.92885 | -82.33870 | 35234 ft | 291 kts | 199° |
| 2026-05-03 20:38 | 29.90867 | -82.33984 | 35669 ft | 288 kts | 199° |
| 2026-05-03 20:38 | 29.88903 | -82.34103 | 36156 ft | 282 kts | 199° |
| 2026-05-03 20:38 | 29.86960 | -82.34222 | 36558 ft | 279 kts | 200° |
| 2026-05-03 20:38 | 29.85012 | -82.34339 | 36854 ft | 280 kts | 200° |
| 2026-05-03 20:39 | 29.83052 | -82.34455 | 37200 ft | 280 kts | 200° |
| 2026-05-03 20:39 | 29.81120 | -82.34570 | 37553 ft | 277 kts | 200° |
| 2026-05-03 20:39 | 29.79227 | -82.34685 | 37911 ft | 275 kts | 200° |
| 2026-05-03 20:39 | 29.77338 | -82.34795 | 38348 ft | 269 kts | 200° |
| 2026-05-03 20:40 | 29.75473 | -82.34908 | 38679 ft | 267 kts | 202° |
| 2026-05-03 20:40 | 29.73591 | -82.35020 | 38861 ft | 271 kts | 201° |
| 2026-05-03 20:40 | 29.71687 | -82.35139 | 38957 ft | 276 kts | 201° |
| 2026-05-03 20:40 | 29.69780 | -82.35256 | 39248 ft | 276 kts | 200° |
| 2026-05-03 20:41 | 29.67847 | -82.35363 | 39596 ft | 275 kts | 201° |
| 2026-05-03 20:41 | 29.65927 | -82.35477 | 39722 ft | 279 kts | 202° |
| 2026-05-03 20:41 | 29.63989 | -82.35596 | 39896 ft | 281 kts | 200° |
| 2026-05-03 20:41 | 29.62029 | -82.35712 | 40238 ft | 283 kts | 200° |
| 2026-05-03 20:42 | 29.60068 | -82.35823 | 40552 ft | 284 kts | 201° |
| 2026-05-03 20:42 | 29.58050 | -82.35868 | 40909 ft | 295 kts | 195° |
| 2026-05-03 20:42 | 29.55979 | -82.35595 | 41245 ft | 305 kts | 192° |
| 2026-05-03 20:42 | 29.53878 | -82.35314 | 41615 ft | 304 kts | 193° |
| 2026-05-03 20:43 | 29.51751 | -82.35049 | 41908 ft | 308 kts | 193° |
| 2026-05-03 20:43 | 29.49619 | -82.34779 | 42299 ft | 309 kts | 193° |
| 2026-05-03 20:43 | 29.47506 | -82.34514 | 42669 ft | 308 kts | 193° |
| 2026-05-03 20:43 | 29.45347 | -82.34244 | 42836 ft | 315 kts | 193° |
| 2026-05-03 20:44 | 29.43158 | -82.33980 | 43033 ft | 320 kts | 193° |
| 2026-05-03 20:44 | 29.38684 | -82.33419 | 42818 ft | 331 kts | 193° |
| 2026-05-03 20:44 | 29.36301 | -82.33175 | 38537 ft | 426 kts | 189° |
| 2026-05-03 20:45 | 29.33431 | -82.32791 | 38056 ft | 399 kts | 187° |
| 2026-05-03 20:45 | 29.30858 | -82.32403 | 38819 ft | 369 kts | 189° |
| 2026-05-03 20:45 | 29.28346 | -82.32120 | 39026 ft | 365 kts | 189° |
| 2026-05-03 20:46 | 29.23275 | -82.31499 | 39027 ft | 366 kts | 189° |
| 2026-05-03 20:46 | 29.18198 | -82.30874 | 39022 ft | 366 kts | 189° |
| 2026-05-03 20:47 | 29.13153 | -82.30249 | 39029 ft | 367 kts | 189° |
| 2026-05-03 20:47 | 29.08068 | -82.29618 | 39015 ft | 368 kts | 188° |
| 2026-05-03 20:48 | 29.02968 | -82.28994 | 39014 ft | 368 kts | 188° |
| 2026-05-03 20:48 | 28.97896 | -82.28363 | 39014 ft | 368 kts | 188° |
| 2026-05-03 20:49 | 28.92805 | -82.27739 | 39010 ft | 368 kts | 188° |
| 2026-05-03 20:49 | 28.87654 | -82.27105 | 39026 ft | 372 kts | 188° |
| 2026-05-03 20:50 | 28.82489 | -82.26466 | 39026 ft | 375 kts | 188° |
| 2026-05-03 20:50 | 28.77309 | -82.25829 | 39029 ft | 373 kts | 189° |
| 2026-05-03 20:51 | 28.72148 | -82.25197 | 39018 ft | 370 kts | 188° |
| 2026-05-03 20:51 | 28.67064 | -82.24573 | 39026 ft | 369 kts | 189° |
| 2026-05-03 20:52 | 28.61877 | -82.23931 | 39008 ft | 377 kts | 188° |
| 2026-05-03 20:52 | 28.56646 | -82.23298 | 39007 ft | 380 kts | 188° |
| 2026-05-03 20:53 | 28.51394 | -82.22651 | 39015 ft | 375 kts | 188° |
| 2026-05-03 20:53 | 28.46227 | -82.22021 | 39006 ft | 372 kts | 189° |
| 2026-05-03 20:54 | 28.41063 | -82.21393 | 39014 ft | 375 kts | 188° |
| 2026-05-03 20:54 | 28.33201 | -82.20436 | 39024 ft | 384 kts | 188° |
| 2026-05-03 20:55 | 28.27890 | -82.19791 | 39014 ft | 383 kts | 188° |
| 2026-05-03 20:55 | 28.22637 | -82.19142 | 39009 ft | 375 kts | 188° |
| 2026-05-03 20:56 | 28.17480 | -82.18515 | 39016 ft | 372 kts | 188° |
| 2026-05-03 20:56 | 28.12303 | -82.17926 | 39032 ft | 374 kts | 192° |
| 2026-05-03 20:57 | 28.07081 | -82.17935 | 39020 ft | 378 kts | 193° |
| 2026-05-03 20:57 | 28.01856 | -82.17988 | 39024 ft | 372 kts | 194° |
| 2026-05-03 20:58 | 27.96716 | -82.18052 | 39022 ft | 363 kts | 195° |
| 2026-05-03 20:58 | 27.91700 | -82.18113 | 39020 ft | 363 kts | 194° |
| 2026-05-03 20:59 | 27.86554 | -82.18189 | 39033 ft | 373 kts | 194° |
| 2026-05-03 20:59 | 27.81325 | -82.18248 | 39035 ft | 378 kts | 194° |
| 2026-05-03 21:00 | 27.77813 | -82.18291 | 39034 ft | 377 kts | 194° |
| 2026-05-03 21:00 | 27.70870 | -82.18379 | 39017 ft | 371 kts | 193° |
| 2026-05-03 21:01 | 27.65749 | -82.18443 | 39024 ft | 369 kts | 194° |
| 2026-05-03 21:01 | 27.60564 | -82.18511 | 39018 ft | 374 kts | 194° |
| 2026-05-03 21:02 | 27.55332 | -82.18578 | 39011 ft | 380 kts | 194° |
| 2026-05-03 21:02 | 27.50016 | -82.18641 | 39020 ft | 379 kts | 194° |
| 2026-05-03 21:03 | 27.44762 | -82.18704 | 39019 ft | 375 kts | 194° |
| 2026-05-03 21:03 | 27.39580 | -82.18774 | 39018 ft | 371 kts | 194° |
| 2026-05-03 21:04 | 27.34420 | -82.18836 | 39012 ft | 371 kts | 194° |
| 2026-05-03 21:04 | 27.29208 | -82.18902 | 39016 ft | 377 kts | 194° |
| 2026-05-03 21:05 | 27.23896 | -82.18974 | 39020 ft | 383 kts | 194° |
| 2026-05-03 21:05 | 27.18583 | -82.19038 | 39019 ft | 381 kts | 193° |
| 2026-05-03 21:06 | 27.13296 | -82.19099 | 38981 ft | 377 kts | 194° |
| 2026-05-03 21:06 | 27.08015 | -82.19048 | 38802 ft | 387 kts | 188° |
| 2026-05-03 21:07 | 27.05337 | -82.18554 | 38651 ft | 398 kts | 182° |
| 2026-05-03 21:07 | 27.02618 | -82.17986 | 38525 ft | 396 kts | 183° |
| 2026-05-03 21:07 | 26.99886 | -82.17445 | 38364 ft | 395 kts | 183° |
| 2026-05-03 21:07 | 26.97214 | -82.16916 | 38207 ft | 393 kts | 183° |
| 2026-05-03 21:08 | 26.94496 | -82.16394 | 38050 ft | 397 kts | 184° |
| 2026-05-03 21:08 | 26.91744 | -82.15863 | 37903 ft | 400 kts | 183° |
| 2026-05-03 21:08 | 26.89013 | -82.15334 | 37755 ft | 404 kts | 183° |
| 2026-05-03 21:08 | 26.86233 | -82.14791 | 37617 ft | 407 kts | 183° |
| 2026-05-03 21:09 | 26.83401 | -82.14249 | 37477 ft | 411 kts | 183° |
| 2026-05-03 21:09 | 26.80589 | -82.13705 | 37344 ft | 414 kts | 183° |
| 2026-05-03 21:09 | 26.77749 | -82.13154 | 37209 ft | 413 kts | 183° |
| 2026-05-03 21:09 | 26.74929 | -82.12592 | 37064 ft | 415 kts | 181° |
| 2026-05-03 21:10 | 26.72099 | -82.11911 | 36918 ft | 412 kts | 180° |
| 2026-05-03 21:10 | 26.69312 | -82.11252 | 36775 ft | 409 kts | 180° |
| 2026-05-03 21:10 | 26.66539 | -82.10718 | 36636 ft | 394 kts | 187° |
| 2026-05-03 21:10 | 26.63817 | -82.10501 | 36499 ft | 391 kts | 188° |
| 2026-05-03 21:11 | 26.61123 | -82.10297 | 36352 ft | 390 kts | 188° |
| 2026-05-03 21:11 | 26.58383 | -82.10106 | 36198 ft | 392 kts | 188° |
| 2026-05-03 21:11 | 26.55645 | -82.09917 | 36058 ft | 395 kts | 189° |
| 2026-05-03 21:11 | 26.52922 | -82.09731 | 35817 ft | 398 kts | 189° |
| 2026-05-03 21:12 | 26.50145 | -82.09540 | 35558 ft | 399 kts | 188° |
| 2026-05-03 21:12 | 26.47346 | -82.09342 | 35291 ft | 397 kts | 188° |
| 2026-05-03 21:12 | 26.44614 | -82.09152 | 35031 ft | 390 kts | 189° |
| 2026-05-03 21:12 | 26.41964 | -82.08968 | 34768 ft | 382 kts | 189° |
| 2026-05-03 21:13 | 26.39279 | -82.08786 | 34234 ft | 385 kts | 189° |
| 2026-05-03 21:13 | 26.36591 | -82.08615 | 32912 ft | 407 kts | 188° |
| 2026-05-03 21:13 | 26.33702 | -82.08427 | 32033 ft | 415 kts | 186° |
| 2026-05-03 21:13 | 26.30859 | -82.08224 | 31333 ft | 415 kts | 186° |
| 2026-05-03 21:14 | 26.27959 | -82.08034 | 29977 ft | 431 kts | 185° |
| 2026-05-03 21:14 | 26.24908 | -82.07832 | 28626 ft | 443 kts | 183° |
| 2026-05-03 21:14 | 26.21840 | -82.07608 | 27450 ft | 447 kts | 182° |
| 2026-05-03 21:14 | 26.18739 | -82.07389 | 26272 ft | 449 kts | 182° |
| 2026-05-03 21:15 | 26.15609 | -82.07167 | 25314 ft | 446 kts | 182° |
| 2026-05-03 21:15 | 26.12554 | -82.06953 | 24593 ft | 438 kts | 182° |
| 2026-05-03 21:15 | 26.09534 | -82.06749 | 23806 ft | 433 kts | 182° |
| 2026-05-03 21:15 | 26.06517 | -82.06542 | 23086 ft | 426 kts | 182° |
| 2026-05-03 21:16 | 26.03589 | -82.06338 | 22418 ft | 420 kts | 182° |
| 2026-05-03 21:16 | 26.00730 | -82.06145 | 21770 ft | 414 kts | 182° |
| 2026-05-03 21:16 | 25.97833 | -82.05949 | 21111 ft | 410 kts | 182° |
| 2026-05-03 21:16 | 25.95025 | -82.05761 | 20465 ft | 406 kts | 182° |
| 2026-05-03 21:17 | 25.92223 | -82.05567 | 19821 ft | 403 kts | 182° |
| 2026-05-03 21:17 | 25.90365 | -82.05441 | 19385 ft | 401 kts | 182° |
| 2026-05-03 21:17 | 25.86670 | -82.05189 | 18512 ft | 397 kts | 182° |
| 2026-05-03 21:17 | 25.83903 | -82.05003 | 17936 ft | 393 kts | 182° |
| 2026-05-03 21:18 | 25.81193 | -82.04812 | 17490 ft | 387 kts | 182° |
| 2026-05-03 21:18 | 25.78548 | -82.04636 | 17030 ft | 382 kts | 182° |
| 2026-05-03 21:18 | 25.75893 | -82.04456 | 16567 ft | 377 kts | 182° |
| 2026-05-03 21:18 | 25.73263 | -82.04276 | 16118 ft | 374 kts | 182° |
| 2026-05-03 21:19 | 25.70715 | -82.04110 | 15664 ft | 370 kts | 181° |
| 2026-05-03 21:19 | 25.68151 | -82.03938 | 15207 ft | 367 kts | 181° |
| 2026-05-03 21:19 | 25.65605 | -82.03772 | 14744 ft | 365 kts | 181° |
| 2026-05-03 21:19 | 25.63053 | -82.03599 | 14289 ft | 363 kts | 181° |
| 2026-05-03 21:20 | 25.60569 | -82.03430 | 14028 ft | 355 kts | 181° |
| 2026-05-03 21:20 | 25.58131 | -82.03259 | 14023 ft | 342 kts | 181° |
| 2026-05-03 21:20 | 25.55768 | -82.03101 | 14014 ft | 336 kts | 181° |
| 2026-05-03 21:20 | 25.53455 | -82.02945 | 14002 ft | 330 kts | 181° |
| 2026-05-03 21:21 | 25.51169 | -82.02788 | 13995 ft | 325 kts | 181° |
| 2026-05-03 21:21 | 25.48935 | -82.02639 | 13987 ft | 321 kts | 181° |
| 2026-05-03 21:21 | 25.46687 | -82.02489 | 13977 ft | 318 kts | 181° |
| 2026-05-03 21:21 | 25.44504 | -82.02341 | 13974 ft | 315 kts | 181° |
| 2026-05-03 21:22 | 25.42299 | -82.02190 | 13970 ft | 312 kts | 181° |
| 2026-05-03 21:22 | 25.40153 | -82.02046 | 13964 ft | 310 kts | 181° |
| 2026-05-03 21:22 | 25.37982 | -82.01901 | 13957 ft | 309 kts | 181° |
| 2026-05-03 21:22 | 25.35851 | -82.01753 | 13951 ft | 307 kts | 182° |
| 2026-05-03 21:23 | 25.33704 | -82.01614 | 13946 ft | 306 kts | 181° |
| 2026-05-03 21:23 | 25.31563 | -82.01466 | 13735 ft | 312 kts | 181° |
| 2026-05-03 21:23 | 25.29359 | -82.01322 | 13413 ft | 320 kts | 181° |
| 2026-05-03 21:23 | 25.27154 | -82.01172 | 13060 ft | 319 kts | 181° |
| 2026-05-03 21:24 | 25.24954 | -82.01022 | 12712 ft | 315 kts | 181° |
| 2026-05-03 21:24 | 25.22763 | -82.00871 | 12357 ft | 307 kts | 181° |
| 2026-05-03 21:24 | 25.20665 | -82.00727 | 12020 ft | 297 kts | 181° |
| 2026-05-03 21:24 | 25.18627 | -82.00590 | 11694 ft | 289 kts | 181° |
| 2026-05-03 21:25 | 25.16642 | -82.00457 | 11385 ft | 284 kts | 181° |
| 2026-05-03 21:25 | 25.14673 | -82.00329 | 11077 ft | 282 kts | 181° |
| 2026-05-03 21:25 | 25.12700 | -82.00196 | 10768 ft | 283 kts | 181° |
| 2026-05-03 21:25 | 25.10730 | -82.00065 | 10453 ft | 283 kts | 181° |
| 2026-05-03 21:26 | 25.08767 | -81.99934 | 10140 ft | 283 kts | 181° |
| 2026-05-03 21:26 | 25.06810 | -81.99799 | 9832 ft | 284 kts | 181° |
| 2026-05-03 21:26 | 25.04830 | -81.99670 | 9521 ft | 284 kts | 181° |
| 2026-05-03 21:26 | 25.02840 | -81.99535 | 9206 ft | 284 kts | 181° |
| 2026-05-03 21:27 | 25.00860 | -81.99399 | 8888 ft | 280 kts | 180° |
| 2026-05-03 21:27 | 24.98955 | -81.99268 | 8572 ft | 269 kts | 180° |
| 2026-05-03 21:27 | 24.97133 | -81.99141 | 8277 ft | 260 kts | 181° |
| 2026-05-03 21:27 | 24.95343 | -81.99020 | 7989 ft | 251 kts | 181° |
| 2026-05-03 21:28 | 24.93626 | -81.98905 | 7715 ft | 243 kts | 181° |
| 2026-05-03 21:28 | 24.91953 | -81.98791 | 7450 ft | 237 kts | 181° |
| 2026-05-03 21:28 | 24.90340 | -81.98685 | 7192 ft | 231 kts | 181° |
| 2026-05-03 21:28 | 24.88733 | -81.98578 | 6940 ft | 227 kts | 180° |
| 2026-05-03 21:29 | 24.87176 | -81.98473 | 6693 ft | 224 kts | 181° |
| 2026-05-03 21:29 | 24.85615 | -81.98369 | 6447 ft | 223 kts | 181° |
| 2026-05-03 21:29 | 24.84067 | -81.98267 | 6204 ft | 225 kts | 180° |
| 2026-05-03 21:29 | 24.82486 | -81.98162 | 5957 ft | 227 kts | 180° |
| 2026-05-03 21:30 | 24.80901 | -81.98053 | 5707 ft | 229 kts | 180° |
| 2026-05-03 21:30 | 24.79304 | -81.97948 | 5452 ft | 229 kts | 180° |
| 2026-05-03 21:30 | 24.77701 | -81.97841 | 5189 ft | 228 kts | 180° |
| 2026-05-03 21:30 | 24.76138 | -81.97736 | 4937 ft | 226 kts | 180° |
| 2026-05-03 21:31 | 24.74551 | -81.97630 | 4691 ft | 224 kts | 180° |
| 2026-05-03 21:31 | 24.73016 | -81.97527 | 4442 ft | 222 kts | 179° |
| 2026-05-03 21:31 | 24.71468 | -81.97424 | 4196 ft | 221 kts | 179° |
| 2026-05-03 21:31 | 24.69923 | -81.97320 | 3949 ft | 221 kts | 179° |
| 2026-05-03 21:32 | 24.68376 | -81.97218 | 3712 ft | 222 kts | 179° |
| 2026-05-03 21:32 | 24.66812 | -81.97114 | 3466 ft | 224 kts | 179° |
| 2026-05-03 21:32 | 24.65257 | -81.97009 | 3217 ft | 225 kts | 178° |
| 2026-05-03 21:32 | 24.63686 | -81.96909 | 3013 ft | 222 kts | 180° |
| 2026-05-03 21:33 | 24.62201 | -81.96886 | 2957 ft | 199 kts | 181° |
| 2026-05-03 21:33 | 24.60864 | -81.96867 | 2458 ft | 197 kts | 182° |
| 2026-05-03 21:33 | 24.59456 | -81.96843 | 1652 ft | 207 kts | 175° |
| 2026-05-03 21:33 | 24.58138 | -81.96503 | 1484 ft | 184 kts | 158° |
| 2026-05-03 21:34 | 24.57127 | -81.95824 | 1508 ft | 164 kts | 138° |
| 2026-05-03 21:34 | 24.56348 | -81.94773 | 1507 ft | 187 kts | 121° |
| 2026-05-03 21:34 | 24.55786 | -81.93545 | 1475 ft | 175 kts | 108° |
| 2026-05-03 21:34 | 24.55558 | -81.92243 | 1502 ft | 169 kts | 94° |
| 2026-05-03 21:35 | 24.55498 | -81.90968 | 1476 ft | 167 kts | 90° |
| 2026-05-03 21:35 | 24.55481 | -81.89748 | 1460 ft | 161 kts | 89° |
| 2026-05-03 21:35 | 24.55479 | -81.88516 | 1482 ft | 171 kts | 88° |
| 2026-05-03 21:35 | 24.55489 | -81.87241 | 1479 ft | 168 kts | 88° |
| 2026-05-03 21:36 | 24.55501 | -81.85906 | 1484 ft | 172 kts | 88° |
| 2026-05-03 21:36 | 24.55517 | -81.84628 | 1331 ft | 165 kts | 88° |
| 2026-05-03 21:36 | 24.55531 | -81.83377 | 1139 ft | 161 kts | 88° |
| 2026-05-03 21:36 | 24.55544 | -81.82165 | 944 ft | 159 kts | 88° |
| 2026-05-03 21:37 | 24.55556 | -81.80957 | 745 ft | 155 kts | 87° |
| 2026-05-03 21:37 | 24.55570 | -81.79795 | 551 ft | 152 kts | 87° |
| 2026-05-03 21:37 | 24.55582 | -81.78683 | 362 ft | 139 kts | 86° |
| 2026-05-03 21:37 | 24.55592 | -81.77662 | 192 ft | 129 kts | 87° |
| 2026-05-03 21:38 | 24.55600 | -81.76705 | 39 ft | 121 kts | 85° |
| 2026-05-03 21:38 | 24.55609 | -81.75860 | 2 ft | 81 kts | 88° |
| 2026-05-03 21:38 | 24.55606 | -81.75652 | 2 ft | 0 kts | 81° |